Time;durP1;ratioP1;P1;durP2;ratioP2;P2;SDS_P1;SDS_P2;PMS_P1;PMS_P2;Temp;Humidity;BMP_temperature;BMP_pressure;BME280_temperature;BME280_humidity;BME280_pressure;Samples;Min_cycle;Max_cycle;Signal;HPM_P1;HPM_P2
2021/10/23 00:02:12;;;;;;;3.80;1.20;;;;;;;6.35;56.36;98713.87;235740;1190;24116;-73
2021/10/23 00:07:15;;;;;;;3.50;1.30;;;;;;;6.47;56.28;98712.48;235681;1190;24996;-74
2021/10/23 00:12:18;;;;;;;3.00;1.20;;;;;;;6.54;56.42;98710.62;235780;1184;24053;-73
2021/10/23 00:17:23;;;;;;;3.90;1.50;;;;;;;6.49;56.55;98704.87;235840;1197;22420;-74
2021/10/23 00:22:29;;;;;;;3.60;1.30;;;;;;;6.39;56.48;98717.61;236075;1197;22624;-72
2021/10/23 00:27:32;;;;;;;25.50;14.70;;;;;;;6.27;56.92;98721.08;235981;1190;25194;-73
2021/10/23 00:32:36;;;;;;;6.70;3.60;;;;;;;6.22;57.21;98719.73;235671;1197;22442;-72
2021/10/23 00:37:39;;;;;;;4.30;1.30;;;;;;;6.23;57.68;98723.47;235759;1190;23992;-71
2021/10/23 00:42:42;;;;;;;3.10;1.50;;;;;;;6.25;58.06;98734.59;235955;1197;22553;-73
2021/10/23 00:47:45;;;;;;;13.40;7.80;;;;;;;6.24;58.45;98742.72;235707;1190;24202;-73
2021/10/23 00:52:51;;;;;;;3.90;1.40;;;;;;;6.28;58.70;98748.33;235929;1184;25127;-72
2021/10/23 00:57:55;;;;;;;3.80;1.20;;;;;;;6.28;58.75;98758.54;235856;1190;25705;-71
2021/10/23 01:02:58;;;;;;;3.30;1.00;;;;;;;6.36;59.30;98769.80;235865;1197;24098;-73
2021/10/23 01:08:01;;;;;;;3.20;1.20;;;;;;;6.49;59.00;98776.92;235738;1193;26140;-73
2021/10/23 01:13:04;;;;;;;2.40;1.20;;;;;;;6.62;59.15;98780.27;235833;1197;22442;-74
2021/10/23 01:18:09;;;;;;;3.60;0.80;;;;;;;6.75;59.31;98791.64;235762;1198;24091;-72
2021/10/23 01:23:11;;;;;;;1.10;0.90;;;;;;;6.92;60.86;98810.60;235631;1197;24203;-72
2021/10/23 01:28:14;;;;;;;1.10;0.40;;;;;;;6.94;62.49;98822.73;235704;1190;24044;-73
2021/10/23 01:33:16;;;;;;;1.60;0.50;;;;;;;6.74;62.58;98827.96;235663;1198;24082;-72
2021/10/23 01:38:19;;;;;;;1.60;0.40;;;;;;;6.49;62.91;98832.39;235823;1197;22589;-72
2021/10/23 01:43:21;;;;;;;0.90;0.50;;;;;;;6.29;63.10;98840.06;235723;1190;22454;-72
2021/10/23 01:48:25;;;;;;;2.10;0.60;;;;;;;6.09;63.35;98837.98;235759;1198;24107;-72
2021/10/23 01:53:30;;;;;;;2.80;0.70;;;;;;;5.90;63.85;98847.52;235813;1197;24043;-73
2021/10/23 01:58:33;;;;;;;1.30;0.20;;;;;;;5.75;64.10;98856.13;235975;1197;22684;-72
2021/10/23 02:03:39;;;;;;;0.50;0.30;;;;;;;5.62;64.61;98862.30;235746;1198;24053;-73
2021/10/23 02:08:42;;;;;;;4.70;0.40;;;;;;;5.50;65.10;98870.60;235776;1174;22627;-74
2021/10/23 02:14:03;;;;;;;;;;;;;;;5.43;65.17;98881.21;235902;1197;24085;-72
2021/10/23 02:19:06;;;;;;;0.70;0.30;;;;;;;5.34;65.80;98881.29;235861;1197;25315;-74
2021/10/23 02:24:08;;;;;;;2.10;0.40;;;;;;;5.24;66.07;98896.86;235770;1190;25004;-74
2021/10/23 02:29:11;;;;;;;2.00;0.40;;;;;;;5.18;66.16;98904.77;235900;1198;24071;-72
2021/10/23 02:34:13;;;;;;;1.90;0.60;;;;;;;5.13;66.20;98908.69;235841;1198;24156;-74
2021/10/23 02:39:16;;;;;;;1.00;0.30;;;;;;;5.07;66.36;98911.29;235783;1190;24051;-73
2021/10/23 02:44:19;;;;;;;1.80;0.60;;;;;;;4.99;66.67;98909.48;235775;1190;24051;-72
2021/10/23 02:49:22;;;;;;;4.10;0.70;;;;;;;4.92;66.74;98901.98;235799;1198;24029;-71
2021/10/23 02:54:25;;;;;;;2.40;0.60;;;;;;;4.88;66.93;98910.39;235747;1193;25163;-74
2021/10/23 02:59:28;;;;;;;1.50;0.50;;;;;;;4.81;66.84;98911.73;235816;1197;24068;-72
2021/10/23 03:04:34;;;;;;;1.70;0.50;;;;;;;4.74;66.89;98916.61;235965;1193;22457;-73
2021/10/23 03:09:46;;;;;;;1.60;0.70;;;;;;;4.69;67.10;98919.16;235797;1190;25157;-72
2021/10/23 03:14:49;;;;;;;4.00;0.70;;;;;;;4.62;67.34;98919.39;235858;1198;22405;-72
2021/10/23 03:19:52;;;;;;;3.90;0.70;;;;;;;4.51;67.91;98920.31;235775;1197;22391;-72
2021/10/23 03:24:54;;;;;;;2.40;0.70;;;;;;;4.45;68.43;98922.61;235720;1197;25186;-74
2021/10/23 03:29:57;;;;;;;1.30;0.60;;;;;;;4.39;68.15;98936.27;235911;1194;22435;-73
2021/10/23 03:35:00;;;;;;;1.60;0.60;;;;;;;4.34;68.61;98946.31;235877;1197;25315;-74
2021/10/23 03:40:06;;;;;;;3.10;0.90;;;;;;;4.32;68.40;98950.65;235774;1183;22432;-72
2021/10/23 03:45:09;;;;;;;2.70;0.80;;;;;;;4.30;68.39;98953.33;235702;1197;24053;-73
2021/10/23 03:50:16;;;;;;;2.10;0.80;;;;;;;4.27;68.52;98962.95;235637;1198;23975;-74
2021/10/23 03:55:32;;;;;;;3.80;0.80;;;;;;;4.26;68.36;98973.10;235684;1197;24053;-73
2021/10/23 04:00:49;;;;;;;6.00;1.00;;;;;;;4.27;68.31;98976.30;235661;1191;22534;-73
2021/10/23 04:05:53;;;;;;;6.30;0.80;;;;;;;4.24;68.21;98986.91;235806;1197;24326;-73
2021/10/23 04:11:00;;;;;;;3.70;0.80;;;;;;;4.15;68.38;98993.77;235756;1198;24050;-73
2021/10/23 04:16:03;;;;;;;2.90;0.50;;;;;;;4.05;68.27;99001.19;235996;1197;24100;-74
2021/10/23 04:21:27;;;;;;;1.70;0.50;;;;;;;3.93;68.55;99004.91;235900;1197;24112;-74
2021/10/23 04:26:49;;;;;;;0.60;0.50;;;;;;;3.79;68.65;99009.71;235835;1193;24107;-74
2021/10/23 04:31:51;;;;;;;4.60;1.00;;;;;;;3.69;68.99;99012.13;235736;1194;26255;-74
2021/10/23 04:36:54;;;;;;;3.00;0.90;;;;;;;3.60;69.32;99019.91;235749;1190;24057;-74
2021/10/23 04:41:59;;;;;;;2.50;1.00;;;;;;;3.55;69.36;99025.48;235859;1197;22552;-74
2021/10/23 04:47:03;;;;;;;1.80;1.10;;;;;;;3.54;69.52;99025.73;235725;1190;25047;-74
2021/10/23 04:52:06;;;;;;;2.30;1.00;;;;;;;3.59;69.65;99025.99;236069;1197;22431;-71
2021/10/23 04:57:22;;;;;;;4.90;1.00;;;;;;;3.65;69.67;99029.54;235924;1197;25054;-73
2021/10/23 05:02:26;;;;;;;1.80;0.60;;;;;;;3.71;69.56;99027.11;235864;1197;24101;-73
2021/10/23 05:07:29;;;;;;;2.10;0.90;;;;;;;3.77;69.68;99029.28;235665;1190;25255;-74
2021/10/23 05:12:31;;;;;;;1.60;0.70;;;;;;;3.84;69.53;99039.16;235649;1198;24085;-72
2021/10/23 05:17:35;;;;;;;2.50;1.00;;;;;;;3.87;69.46;99043.66;235539;1197;24037;-73
2021/10/23 05:22:38;;;;;;;1.50;0.70;;;;;;;3.90;69.32;99055.55;235729;1197;24111;-74
2021/10/23 05:27:41;;;;;;;3.90;1.00;;;;;;;3.94;69.54;99056.89;235923;1197;22489;-73
2021/10/23 05:32:44;;;;;;;4.60;1.10;;;;;;;4.00;69.42;99068.22;235760;1197;22492;-75
2021/10/23 05:37:49;;;;;;;2.50;1.40;;;;;;;4.04;69.43;99072.95;235761;1197;22449;-74
2021/10/23 05:43:05;;;;;;;3.10;0.80;;;;;;;4.08;69.09;99078.50;235805;1190;24085;-75
2021/10/23 05:48:26;;;;;;;3.60;0.80;;;;;;;4.15;69.00;99084.56;235851;1197;24074;-73
2021/10/23 05:53:28;;;;;;;2.00;0.90;;;;;;;4.22;69.04;99093.65;235805;1190;22465;-74
2021/10/23 05:58:31;;;;;;;4.10;1.10;;;;;;;4.26;68.86;99096.85;235720;1193;25390;-72
2021/10/23 06:03:37;;;;;;;2.80;1.00;;;;;;;4.32;68.84;99108.46;235749;1190;24193;-74
2021/10/23 06:08:40;;;;;;;4.20;1.10;;;;;;;4.43;68.83;99110.52;235623;1184;25170;-72
2021/10/23 06:13:43;;;;;;;1.60;0.80;;;;;;;4.56;68.76;99121.07;235753;1197;22477;-73
2021/10/23 06:18:45;;;;;;;1.80;1.30;;;;;;;4.71;68.61;99122.11;235707;1197;24085;-74
2021/10/23 06:23:48;;;;;;;4.00;1.20;;;;;;;4.89;68.32;99122.33;235714;1197;24030;-74
2021/10/23 06:29:04;;;;;;;3.60;1.30;;;;;;;5.10;67.97;99127.73;235761;1190;22419;-74
2021/10/23 06:34:08;;;;;;;3.10;1.00;;;;;;;5.30;67.66;99133.13;235675;1196;24199;-74
2021/10/23 06:39:11;;;;;;;3.10;0.80;;;;;;;5.48;67.18;99143.41;235782;1197;22429;-74
2021/10/23 06:44:14;;;;;;;8.10;1.00;;;;;;;5.72;66.58;99148.98;235816;1190;24466;-75
2021/10/23 06:49:16;;;;;;;1.60;0.90;;;;;;;5.92;66.28;99152.16;235866;1174;25296;-73
2021/10/23 06:54:19;;;;;;;1.30;0.80;;;;;;;6.11;65.63;99159.84;235868;1197;24052;-72
2021/10/23 06:59:22;;;;;;;3.40;1.80;;;;;;;6.27;65.31;99166.30;235828;1198;25871;-73
2021/10/23 07:04:24;;;;;;;3.10;0.90;;;;;;;6.37;64.89;99167.88;236279;1198;22438;-72
2021/10/23 07:09:27;;;;;;;2.00;0.60;;;;;;;6.41;64.00;99172.49;236085;1190;24089;-72
2021/10/23 07:14:30;;;;;;;3.10;1.00;;;;;;;6.51;63.75;99185.47;236091;1174;23985;-73
2021/10/23 07:19:33;;;;;;;3.80;0.90;;;;;;;6.66;63.50;99195.58;236016;1197;24143;-74
2021/10/23 07:24:35;;;;;;;1.40;0.90;;;;;;;6.82;62.95;99194.87;236069;1190;22439;-74
2021/10/23 07:29:37;;;;;;;2.30;1.20;;;;;;;6.97;62.50;99203.79;235853;1192;24063;-74
2021/10/23 07:34:40;;;;;;;2.70;0.70;;;;;;;7.07;61.73;99212.50;235962;1193;24118;-74
2021/10/23 07:39:42;;;;;;;3.80;1.40;;;;;;;7.23;61.65;99221.05;235912;1190;24079;-75
2021/10/23 07:44:45;;;;;;;3.30;0.80;;;;;;;7.43;61.14;99220.33;235947;1198;25180;-75
2021/10/23 07:49:47;;;;;;;6.20;1.60;;;;;;;7.61;61.01;99225.88;235962;1190;22443;-72
2021/10/23 07:54:50;;;;;;;4.20;1.20;;;;;;;7.80;60.45;99227.70;235882;1193;24040;-74
2021/10/23 07:59:54;;;;;;;4.00;1.50;;;;;;;7.96;59.61;99243.20;236579;1191;22430;-74
2021/10/23 08:05:06;;;;;;;3.00;1.00;;;;;;;8.18;59.33;99241.90;236746;1197;24894;-74
2021/10/23 08:10:09;;;;;;;4.20;1.60;;;;;;;8.24;58.66;99248.88;236315;1197;25468;-74
2021/10/23 08:15:13;;;;;;;5.30;1.50;;;;;;;8.27;58.77;99248.72;237990;1198;25125;-73
2021/10/23 08:20:16;;;;;;;3.90;1.20;;;;;;;8.35;58.58;99248.80;236419;1198;22393;-74
2021/10/23 08:25:18;;;;;;;3.50;1.30;;;;;;;8.43;57.98;99260.73;236152;1197;22531;-74
2021/10/23 08:30:21;;;;;;;4.30;1.50;;;;;;;8.45;57.79;99259.55;236230;1192;22450;-74
2021/10/23 08:35:25;;;;;;;1.90;0.80;;;;;;;8.44;57.73;99267.11;236735;1190;23548;-73
2021/10/23 08:40:27;;;;;;;4.30;1.10;;;;;;;8.47;58.06;99266.85;236519;1194;22453;-75
2021/10/23 08:45:31;;;;;;;3.80;1.30;;;;;;;8.54;57.91;99273.79;236758;1190;25180;-74
2021/10/23 08:50:35;;;;;;;5.50;1.30;;;;;;;8.56;57.89;99271.92;236498;1177;24041;-72
2021/10/23 08:55:38;;;;;;;5.30;1.20;;;;;;;8.76;57.94;99271.70;237254;1190;24062;-72
2021/10/23 09:00:44;;;;;;;5.30;1.30;;;;;;;9.09;57.32;99272.14;236437;1198;24012;-74
2021/10/23 09:05:53;;;;;;;5.80;1.50;;;;;;;9.39;56.57;99278.73;236413;1190;24040;-72
2021/10/23 09:10:57;;;;;;;5.20;1.30;;;;;;;9.59;56.41;99285.77;236297;1190;24130;-73
2021/10/23 09:16:16;;;;;;;2.80;0.90;;;;;;;9.69;56.24;99283.83;236837;1190;24028;-72
2021/10/23 09:21:22;;;;;;;4.80;0.80;;;;;;;9.75;55.72;99288.10;236811;1198;25076;-72
2021/10/23 09:26:29;;;;;;;8.20;1.60;;;;;;;9.64;55.01;99295.23;236262;1197;22531;-72
2021/10/23 09:31:33;;;;;;;5.00;1.50;;;;;;;9.46;55.19;99303.20;236309;1190;25122;-74
2021/10/23 09:36:55;;;;;;;5.80;1.10;;;;;;;9.34;55.38;99313.53;237503;1198;23178;-72
2021/10/23 09:42:17;;;;;;;5.90;1.00;;;;;;;9.46;55.57;99308.98;236611;1174;24053;-72
2021/10/23 09:47:19;;;;;;;3.90;1.20;;;;;;;9.80;55.07;99310.14;236306;1190;22480;-74
2021/10/23 09:52:22;;;;;;;7.20;1.20;;;;;;;10.00;54.74;99307.38;236001;1198;25003;-73
2021/10/23 09:57:29;;;;;;;4.50;1.30;;;;;;;10.37;54.06;99309.70;236316;1193;25006;-72
2021/10/23 10:02:47;;;;;;;3.30;1.50;;;;;;;10.65;53.29;99303.55;237275;1190;22526;-72
2021/10/23 10:07:50;;;;;;;5.50;1.60;;;;;;;11.01;52.52;99310.25;236100;1190;22450;-74
2021/10/23 10:13:06;;;;;;;3.60;1.20;;;;;;;11.09;51.93;99323.77;235939;1190;23576;-74
2021/10/23 10:18:30;;;;;;;5.00;1.30;;;;;;;11.07;51.51;99326.95;235878;1198;24031;-72
2021/10/23 10:23:42;;;;;;;5.40;1.60;;;;;;;11.24;51.46;99322.59;235898;1194;24027;-74
2021/10/23 10:29:17;;;;;;;9.10;2.70;;;;;;;11.23;50.51;99317.78;236071;1190;25171;-74
2021/10/23 10:45:41;;;;;;;7.70;1.50;;;;;;;10.31;50.23;99327.49;236051;1190;22426;-73
2021/10/23 10:50:53;;;;;;;4.20;1.50;;;;;;;10.17;50.31;99329.55;237608;1190;22413;-74
2021/10/23 10:55:58;;;;;;;3.50;1.30;;;;;;;10.29;50.76;99331.79;238072;1197;24047;-74
2021/10/23 11:01:01;;;;;;;4.30;1.30;;;;;;;10.56;50.27;99322.65;235732;1190;25130;-74
2021/10/23 11:11:55;;;;;;;3.70;1.40;;;;;;;11.16;49.54;99314.13;235772;1197;22425;-75
2021/10/23 11:17:13;;;;;;;3.90;1.10;;;;;;;11.44;49.22;99319.06;235742;1190;24531;-75
2021/10/23 11:22:25;;;;;;;3.90;1.20;;;;;;;11.43;48.52;99325.51;235740;1198;22571;-73
2021/10/23 11:27:35;;;;;;;4.30;1.40;;;;;;;11.31;48.93;99321.91;235967;1190;24085;-75
2021/10/23 11:32:53;;;;;;;4.00;1.30;;;;;;;11.17;48.51;99332.25;235782;1197;22447;-76
2021/10/23 11:37:56;;;;;;;6.20;1.40;;;;;;;11.08;49.15;99335.20;235832;1197;24079;-75
2021/10/23 11:43:04;;;;;;;2.80;1.10;;;;;;;11.05;48.91;99338.43;236048;1190;22466;-76
2021/10/23 11:48:10;;;;;;;2.40;1.60;;;;;;;10.93;48.76;99337.11;235992;1190;24277;-75
2021/10/23 11:53:16;;;;;;;2.70;1.30;;;;;;;10.72;49.84;99349.74;236254;1197;23656;-74
2021/10/23 11:58:23;;;;;;;4.50;1.10;;;;;;;10.33;51.97;99357.37;235951;1190;24576;-75
2021/10/23 12:03:49;;;;;;;4.60;1.60;;;;;;;9.91;53.52;99352.35;235921;1190;24790;-73
2021/10/23 12:09:13;;;;;;;5.40;1.70;;;;;;;9.88;54.86;99351.61;235773;1198;24094;-76
2021/10/23 12:14:16;;;;;;;4.60;2.00;;;;;;;9.99;54.92;99355.94;236220;1190;22453;-73
2021/10/23 12:19:20;;;;;;;4.50;1.90;;;;;;;10.06;54.44;99358.28;236293;1197;24085;-73
2021/10/23 12:24:39;;;;;;;3.70;1.30;;;;;;;10.04;54.35;99376.33;236158;1197;22466;-77
2021/10/23 12:29:45;;;;;;;2.20;0.90;;;;;;;9.62;54.95;99388.80;236162;1197;24005;-76
2021/10/23 12:34:50;;;;;;;4.00;0.80;;;;;;;8.82;57.93;99396.56;235948;1197;24651;-74
2021/10/23 12:40:23;;;;;;;4.10;1.40;;;;;;;7.90;60.68;99406.90;236027;1190;24065;-76
2021/10/23 12:45:30;;;;;;;3.20;1.10;;;;;;;7.25;62.85;99395.34;236056;1190;24642;-77
2021/10/23 12:50:34;;;;;;;3.30;1.40;;;;;;;6.85;64.51;99394.67;235972;1197;24088;-76
2021/10/23 12:55:38;;;;;;;4.80;1.90;;;;;;;6.68;65.45;99398.57;235645;1198;25013;-76
2021/10/23 13:00:40;;;;;;;6.80;2.30;;;;;;;6.66;66.27;99402.02;236055;1192;22437;-74
2021/10/23 13:05:44;;;;;;;3.80;2.00;;;;;;;6.68;67.16;99418.91;236019;1197;25004;-78
2021/10/23 13:10:46;;;;;;;2.50;1.20;;;;;;;6.60;69.18;99439.95;236096;1190;24082;-74
2021/10/23 13:15:50;;;;;;;3.30;1.30;;;;;;;6.47;69.64;99424.07;236037;1177;25194;-76
2021/10/23 13:20:54;;;;;;;3.30;1.70;;;;;;;6.43;69.48;99420.66;236100;1190;22432;-74
2021/10/23 13:26:10;;;;;;;5.20;2.00;;;;;;;6.38;69.86;99425.17;236180;1198;25352;-76
2021/10/23 13:31:27;;;;;;;6.80;2.70;;;;;;;6.35;70.17;99427.04;235890;1193;24071;-74
2021/10/23 13:36:29;;;;;;;4.10;2.30;;;;;;;6.41;70.61;99419.41;236273;1197;22545;-75
2021/10/23 13:41:32;;;;;;;3.70;1.50;;;;;;;6.47;70.44;99426.80;235863;1190;22445;-75
2021/10/23 13:46:35;;;;;;;3.50;1.20;;;;;;;6.54;70.67;99429.30;235749;1198;24148;-75
2021/10/23 13:51:37;;;;;;;3.80;1.40;;;;;;;6.67;70.51;99434.08;236153;1197;25010;-79
2021/10/23 13:56:41;;;;;;;2.80;1.40;;;;;;;6.76;70.91;99432.48;235833;1190;25362;-76
2021/10/23 14:01:45;;;;;;;3.30;1.30;;;;;;;6.84;70.67;99424.02;235816;1187;24334;-76
2021/10/23 14:06:48;;;;;;;4.00;1.30;;;;;;;6.94;70.44;99423.61;235887;1198;22434;-76
2021/10/23 14:11:51;;;;;;;3.40;1.60;;;;;;;7.03;70.20;99424.35;235771;1198;24020;-75
2021/10/23 14:16:56;;;;;;;4.70;2.10;;;;;;;7.06;70.26;99437.88;235968;1197;24197;-76
2021/10/23 14:21:59;;;;;;;4.70;1.90;;;;;;;7.05;70.01;99443.98;236139;1197;24037;-75
2021/10/23 14:27:04;;;;;;;4.10;1.90;;;;;;;7.01;70.12;99447.78;235870;1190;22562;-77
2021/10/23 14:32:07;;;;;;;4.70;1.70;;;;;;;7.00;69.80;99452.55;235936;1197;24089;-76
2021/10/23 14:37:10;;;;;;;7.60;2.60;;;;;;;7.01;69.99;99457.52;236168;1193;22495;-75
2021/10/23 14:42:13;;;;;;;5.10;2.40;;;;;;;7.00;69.74;99461.71;236153;1182;24125;-74
2021/10/23 14:47:16;;;;;;;4.50;3.00;;;;;;;6.98;69.70;99467.51;235891;1197;26233;-73
2021/10/23 14:52:18;;;;;;;9.30;2.70;;;;;;;6.98;69.65;99473.05;235990;1190;24276;-73
2021/10/23 14:57:21;;;;;;;6.10;3.10;;;;;;;6.99;69.82;99479.40;235904;1197;24202;-75
2021/10/23 15:02:23;;;;;;;5.60;3.40;;;;;;;7.00;69.63;99485.86;235881;1198;23992;-76
2021/10/23 15:07:39;;;;;;;9.20;4.00;;;;;;;7.04;70.08;99490.95;235846;1190;24082;-76
2021/10/23 15:12:49;;;;;;;9.90;4.10;;;;;;;7.11;70.09;99499.96;236005;1197;24075;-75
2021/10/23 15:17:52;;;;;;;8.70;3.50;;;;;;;7.20;69.75;99506.52;236005;1198;24053;-74
2021/10/23 15:22:55;;;;;;;6.20;3.60;;;;;;;7.25;69.43;99509.52;236221;1190;22472;-76
2021/10/23 15:27:57;;;;;;;7.30;3.40;;;;;;;7.26;69.67;99517.83;236091;1197;22429;-75
2021/10/23 15:33:13;;;;;;;5.70;3.10;;;;;;;7.21;69.63;99523.09;236169;1190;24046;-76
2021/10/23 15:38:29;;;;;;;5.60;2.40;;;;;;;7.06;69.40;99531.44;235879;1190;23574;-74
2021/10/23 15:43:32;;;;;;;4.40;2.30;;;;;;;6.90;69.52;99541.51;236015;1190;22459;-75
2021/10/23 15:48:35;;;;;;;8.40;2.90;;;;;;;6.75;69.44;99550.23;235973;1190;24002;-76
2021/10/23 15:53:51;;;;;;;5.50;2.50;;;;;;;6.63;69.78;99554.43;235980;1197;25225;-73
2021/10/23 15:59:14;;;;;;;4.80;2.10;;;;;;;6.56;70.06;99576.96;235977;1190;24054;-74
2021/10/23 16:04:16;;;;;;;4.80;2.30;;;;;;;6.58;70.51;99599.23;235926;1190;22432;-73
2021/10/23 16:09:33;;;;;;;7.70;3.10;;;;;;;6.55;70.72;99593.17;236102;1198;24004;-73
2021/10/23 16:14:43;;;;;;;6.20;3.00;;;;;;;6.44;70.87;99607.51;235897;1190;22990;-75
2021/10/23 16:19:47;;;;;;;7.40;3.40;;;;;;;6.28;71.02;99613.31;235971;1197;25128;-76
2021/10/23 16:24:49;;;;;;;11.20;4.90;;;;;;;6.13;71.25;99624.37;235947;1197;24071;-75
2021/10/23 16:29:52;;;;;;;23.70;12.50;;;;;;;5.97;71.75;99629.76;235961;1190;25198;-76
2021/10/23 16:34:55;;;;;;;11.90;6.40;;;;;;;5.77;71.77;99642.74;235894;1193;23982;-76
2021/10/23 16:39:58;;;;;;;15.30;6.20;;;;;;;5.62;71.84;99648.52;235959;1197;23324;-76
2021/10/23 16:45:01;;;;;;;9.80;5.50;;;;;;;5.50;72.34;99655.96;235966;1190;24053;-76
2021/10/23 16:50:05;;;;;;;10.70;5.30;;;;;;;5.36;72.33;99659.02;236364;1193;22427;-76
2021/10/23 16:55:08;;;;;;;10.40;6.20;;;;;;;5.20;72.91;99664.33;236227;1197;24056;-76
2021/10/23 17:00:10;;;;;;;16.90;7.30;;;;;;;5.06;72.87;99674.80;235905;1198;24051;-76
2021/10/23 17:05:13;;;;;;;15.10;7.40;;;;;;;4.97;73.24;99687.86;236066;1190;22494;-77
2021/10/23 17:10:16;;;;;;;14.80;7.70;;;;;;;4.98;74.02;99695.54;236089;1198;24206;-76
2021/10/23 17:15:21;;;;;;;13.10;7.20;;;;;;;5.06;74.34;99705.03;236023;1190;24177;-74
2021/10/23 17:20:24;;;;;;;9.30;4.40;;;;;;;5.16;74.65;99726.95;235984;1198;24065;-75
2021/10/23 17:25:26;;;;;;;12.50;5.50;;;;;;;5.31;74.75;99740.36;235801;1197;22501;-76
2021/10/23 17:30:42;;;;;;;8.40;3.90;;;;;;;5.38;74.25;99733.83;235948;1197;24033;-74
2021/10/23 17:36:06;;;;;;;9.60;4.50;;;;;;;5.38;73.79;99737.06;235744;1198;25582;-75
2021/10/23 17:41:08;;;;;;;11.60;5.30;;;;;;;5.35;74.00;99738.63;235913;1198;24119;-73
2021/10/23 17:46:11;;;;;;;12.80;5.90;;;;;;;5.30;74.20;99742.79;235797;1174;24669;-73
2021/10/23 17:51:14;;;;;;;12.40;6.60;;;;;;;5.24;74.21;99747.58;236125;1197;24124;-77
2021/10/23 17:56:34;;;;;;;16.50;7.20;;;;;;;5.14;74.15;99751.42;236026;1190;24091;-73
2021/10/23 18:01:49;;;;;;;13.70;6.50;;;;;;;4.99;74.25;99760.89;236175;1197;22545;-73
2021/10/23 18:06:52;;;;;;;13.10;7.40;;;;;;;4.83;74.36;99764.41;235874;1198;25391;-75
2021/10/23 18:11:56;;;;;;;14.20;6.30;;;;;;;4.68;74.70;99766.90;236010;1197;26319;-73
2021/10/23 18:17:11;;;;;;;11.50;6.40;;;;;;;4.54;74.51;99773.54;235819;1192;22472;-74
2021/10/23 18:22:13;;;;;;;12.90;6.00;;;;;;;4.42;74.60;99777.12;235862;1175;25372;-72
2021/10/23 18:27:16;;;;;;;11.20;5.50;;;;;;;4.28;74.76;99779.00;235766;1197;24156;-76
2021/10/23 18:32:18;;;;;;;11.90;6.10;;;;;;;4.16;75.13;99786.69;235843;1197;25157;-75
2021/10/23 18:37:21;;;;;;;12.10;5.60;;;;;;;4.07;75.12;99792.57;235905;1190;22459;-76
2021/10/23 18:42:24;;;;;;;14.60;7.70;;;;;;;4.00;75.37;99800.28;235923;1190;24088;-74
2021/10/23 18:47:30;;;;;;;11.00;6.30;;;;;;;3.91;75.61;99811.00;236013;1197;24187;-75
2021/10/23 18:52:33;;;;;;;10.90;5.90;;;;;;;3.84;75.84;99816.17;235981;1197;24599;-75
2021/10/23 18:57:37;;;;;;;11.40;6.30;;;;;;;3.80;75.95;99820.20;235842;1197;24052;-73
2021/10/23 19:02:42;;;;;;;15.10;7.40;;;;;;;3.79;76.20;99822.86;235961;1197;25250;-74
2021/10/23 19:07:45;;;;;;;23.20;11.10;;;;;;;3.76;76.29;99828.19;235912;1190;22466;-75
2021/10/23 19:12:48;;;;;;;22.50;11.40;;;;;;;3.74;76.19;99830.77;236000;1198;25229;-74
2021/10/23 19:17:51;;;;;;;19.30;8.70;;;;;;;3.72;76.18;99832.88;235769;1198;24229;-75
2021/10/23 19:22:54;;;;;;;16.60;7.10;;;;;;;3.69;76.46;99832.45;235979;1193;22476;-73
2021/10/23 19:27:57;;;;;;;18.50;7.50;;;;;;;3.64;76.65;99840.16;235841;1198;24038;-73
2021/10/23 19:33:00;;;;;;;17.10;8.30;;;;;;;3.61;76.73;99850.77;235931;1197;26144;-74
2021/10/23 19:38:03;;;;;;;17.40;8.00;;;;;;;3.58;76.55;99857.57;235988;1197;22427;-73
2021/10/23 19:43:08;;;;;;;18.20;8.20;;;;;;;3.57;76.67;99861.81;235859;1197;24158;-74
2021/10/23 19:48:11;;;;;;;19.70;8.90;;;;;;;3.54;76.85;99868.30;236013;1197;25358;-74
2021/10/23 19:53:13;;;;;;;20.10;8.80;;;;;;;3.50;76.95;99873.35;235814;1198;24112;-74
2021/10/23 19:58:16;;;;;;;16.00;8.10;;;;;;;3.48;77.06;99878.42;235908;1184;24270;-77
2021/10/23 20:03:21;;;;;;;17.20;9.30;;;;;;;3.44;76.91;99882.48;235963;1193;24248;-75
2021/10/23 20:08:25;;;;;;;21.70;10.30;;;;;;;3.42;76.97;99876.63;235802;1190;22466;-74
2021/10/23 20:13:28;;;;;;;15.90;8.20;;;;;;;3.39;77.28;99885.98;235859;1184;24047;-73
2021/10/23 20:18:35;;;;;;;17.60;8.90;;;;;;;3.36;77.18;99897.58;235710;1177;22516;-75
2021/10/23 20:23:38;;;;;;;23.20;9.40;;;;;;;3.33;77.28;99900.20;235898;1198;25338;-73
2021/10/23 20:28:41;;;;;;;18.70;8.40;;;;;;;3.35;77.24;99907.52;236038;1198;25283;-75
2021/10/23 20:33:44;;;;;;;15.00;7.80;;;;;;;3.43;77.53;99913.83;235795;1198;24149;-76
2021/10/23 20:38:46;;;;;;;14.40;7.90;;;;;;;3.45;77.43;99919.61;235882;1197;22640;-74
2021/10/23 20:43:49;;;;;;;14.50;6.90;;;;;;;3.48;77.39;99929.17;235712;1194;24072;-75
2021/10/23 20:48:54;;;;;;;14.50;6.90;;;;;;;3.50;77.44;99928.70;235887;1184;22575;-76
2021/10/23 20:53:57;;;;;;;13.00;6.10;;;;;;;3.49;77.50;99932.50;235795;1198;24987;-75
2021/10/23 20:59:00;;;;;;;9.80;5.40;;;;;;;3.41;77.32;99934.35;235729;1198;25186;-73
2021/10/23 21:04:06;;;;;;;13.00;5.70;;;;;;;3.31;77.30;99939.58;235892;1197;25339;-73
2021/10/23 21:09:08;;;;;;;14.80;6.20;;;;;;;3.28;77.47;99944.07;235810;1197;24053;-73
2021/10/23 21:14:12;;;;;;;14.40;6.00;;;;;;;3.31;77.55;99950.58;235805;1191;24127;-74
2021/10/23 21:19:28;;;;;;;13.90;5.60;;;;;;;3.33;77.48;99952.84;235761;1193;24129;-77
2021/10/23 21:24:31;;;;;;;13.20;6.30;;;;;;;3.36;77.44;99961.84;235892;1197;22471;-73
2021/10/23 21:29:33;;;;;;;10.80;6.00;;;;;;;3.45;77.63;99960.82;236101;1190;25286;-75
2021/10/23 21:34:37;;;;;;;11.60;6.00;;;;;;;3.55;77.64;99968.42;235661;1197;22523;-76
2021/10/23 21:39:39;;;;;;;10.10;5.70;;;;;;;3.65;77.68;99968.08;235806;1184;25192;-75
2021/10/23 21:44:42;;;;;;;10.40;5.20;;;;;;;3.78;77.62;99970.77;235944;1195;24068;-74
2021/10/23 21:49:46;;;;;;;12.50;5.70;;;;;;;3.88;77.61;99977.59;235969;1190;24156;-74
2021/10/23 21:54:49;;;;;;;12.90;5.70;;;;;;;3.96;77.72;99983.66;235896;1197;24129;-73
2021/10/23 21:59:52;;;;;;;11.50;5.40;;;;;;;4.03;77.64;99991.80;235838;1197;24088;-74
2021/10/23 22:04:54;;;;;;;10.10;4.90;;;;;;;4.12;77.70;99996.52;235867;1192;25274;-75
2021/10/23 22:09:57;;;;;;;10.30;5.00;;;;;;;4.22;77.62;99997.50;235831;1190;24047;-73
2021/10/23 22:15:01;;;;;;;10.50;4.80;;;;;;;4.32;77.43;99999.45;235853;1194;24026;-75
2021/10/23 22:20:05;;;;;;;12.00;4.90;;;;;;;4.38;77.39;99997.90;235966;1197;22442;-75
2021/10/23 22:25:08;;;;;;;11.60;4.90;;;;;;;4.40;77.20;99999.41;235908;1197;26143;-75
2021/10/23 22:30:11;;;;;;;14.90;5.80;;;;;;;4.42;77.00;100003.21;235926;1190;24005;-75
2021/10/23 22:35:14;;;;;;;9.90;4.80;;;;;;;4.40;76.98;100005.84;236009;1197;25468;-73
2021/10/23 22:40:16;;;;;;;10.70;5.20;;;;;;;4.38;77.09;100009.38;235817;1197;25207;-73
2021/10/23 22:45:20;;;;;;;10.00;5.00;;;;;;;4.37;76.80;100011.79;235784;1184;22463;-75
2021/10/23 22:50:22;;;;;;;12.20;4.90;;;;;;;4.38;76.78;100011.66;236019;1198;24085;-73
2021/10/23 22:55:25;;;;;;;10.20;4.40;;;;;;;4.41;76.82;100013.83;235904;1197;24053;-76
2021/10/23 23:00:33;;;;;;;12.70;5.30;;;;;;;4.38;76.95;100017.13;235832;1198;24046;-75
2021/10/23 23:05:36;;;;;;;11.50;5.30;;;;;;;4.36;76.78;100019.18;235875;1198;23995;-75
2021/10/23 23:10:40;;;;;;;10.00;5.00;;;;;;;4.36;76.65;100021.39;235903;1197;25159;-73
2021/10/23 23:15:44;;;;;;;11.40;4.70;;;;;;;4.35;77.03;100024.45;235815;1197;24056;-74
2021/10/23 23:20:49;;;;;;;8.90;4.50;;;;;;;4.32;76.86;100027.42;235781;1177;22494;-75
2021/10/23 23:25:52;;;;;;;10.90;5.20;;;;;;;4.24;77.02;100025.11;235891;1198;25276;-75
2021/10/23 23:31:06;;;;;;;11.90;4.50;;;;;;;4.12;76.84;100025.93;235751;1198;22552;-75
2021/10/23 23:36:10;;;;;;;13.00;5.60;;;;;;;4.01;76.89;100025.11;235711;1198;24181;-75
2021/10/23 23:41:12;;;;;;;12.20;5.50;;;;;;;3.92;77.03;100042.38;235646;1197;25170;-73
2021/10/23 23:46:16;;;;;;;10.50;4.70;;;;;;;3.91;77.48;100049.36;235781;1196;26190;-75
2021/10/23 23:51:19;;;;;;;14.70;5.40;;;;;;;3.87;77.20;100054.64;235769;1198;22454;-74
2021/10/23 23:56:22;;;;;;;14.90;5.90;;;;;;;3.85;77.22;100057.96;235756;1198;24066;-75
